createdAt,value
2022-11-21T00:01:27.590Z,25.25
2022-11-21T00:03:54.912Z,25.07
2022-11-21T00:06:23.655Z,24.17
2022-11-21T00:08:51.410Z,21.67
2022-11-21T00:11:18.805Z,24.10
2022-11-21T00:13:46.241Z,24.52
2022-11-21T00:16:15.245Z,24.52
2022-11-21T00:18:44.213Z,23.57
2022-11-21T00:21:15.081Z,22.73
2022-11-21T00:23:44.031Z,23.38
2022-11-21T00:26:15.611Z,26.48
2022-11-21T00:28:43.163Z,23.40
2022-11-21T00:31:20.676Z,23.88
2022-11-21T00:33:48.280Z,23.13
2022-11-21T00:36:15.580Z,23.77
2022-11-21T00:38:42.842Z,23.65
2022-11-21T00:41:12.953Z,22.15
2022-11-21T00:43:40.212Z,22.50
2022-11-21T00:46:07.595Z,23.45
2022-11-21T00:48:34.935Z,24.67
2022-11-21T00:51:03.533Z,23.08
2022-11-21T00:53:31.243Z,21.45
2022-11-21T00:55:58.720Z,22.67
2022-11-21T00:58:26.526Z,20.42
2022-11-21T01:01:03.508Z,22.77
2022-11-21T01:03:32.862Z,24.02
2022-11-21T01:06:08.742Z,24.73
2022-11-21T01:08:38.635Z,21.85
2022-11-21T01:11:08.388Z,21.35
2022-11-21T01:13:36.372Z,22.50
2022-11-21T01:16:16.113Z,22.98
2022-11-21T01:18:43.538Z,21.45
2022-11-21T01:21:25.315Z,21.40
2022-11-21T01:23:53.440Z,20.38
2022-11-21T01:26:23.571Z,21.08
2022-11-21T01:28:51.807Z,21.27
2022-11-21T01:31:24.844Z,19.50
2022-11-21T01:33:52.654Z,19.95
2022-11-21T01:36:21.290Z,15.43
2022-11-21T01:38:51.272Z,18.77
2022-11-21T01:41:36.036Z,20.35
2022-11-21T01:44:22.004Z,17.98
2022-11-21T01:46:50.401Z,20.52
2022-11-21T01:49:30.924Z,19.52
2022-11-21T01:52:15.378Z,21.70
2022-11-21T01:55:12.032Z,17.65
2022-11-21T01:57:43.882Z,18.73
2022-11-21T02:00:27.349Z,21.90
2022-11-21T02:02:59.099Z,19.48
2022-11-21T02:05:31.382Z,16.50
2022-11-21T02:08:03.961Z,21.98
2022-11-21T02:10:32.627Z,21.65
2022-11-21T02:13:00.821Z,18.20
2022-11-21T02:15:30.653Z,22.40
2022-11-21T02:17:57.972Z,21.88
2022-11-21T02:20:28.437Z,20.75
2022-11-21T02:22:55.762Z,25.30
2022-11-21T02:25:31.796Z,23.08
2022-11-21T02:28:02.081Z,22.00
2022-11-21T02:30:31.888Z,26.52
2022-11-21T02:32:59.383Z,22.90
2022-11-21T02:35:26.766Z,22.95
2022-11-21T02:38:19.833Z,25.30
2022-11-21T02:41:17.083Z,23.77
2022-11-21T02:44:00.921Z,23.60
2022-11-21T02:46:29.236Z,19.73
2022-11-21T02:48:58.425Z,22.30
2022-11-21T02:51:25.773Z,19.52
2022-11-21T02:53:53.049Z,17.95
2022-11-21T02:56:20.555Z,13.80
2022-11-21T02:58:48.130Z,21.05
2022-11-21T03:01:15.446Z,19.23
2022-11-21T03:03:42.845Z,25.38
2022-11-21T03:06:10.197Z,24.35
2022-11-21T03:08:37.445Z,24.38
2022-11-21T03:11:05.242Z,23.58
2022-11-21T03:13:32.575Z,23.02
2022-11-21T03:15:59.956Z,22.90
2022-11-21T03:18:27.311Z,25.67
2022-11-21T03:20:54.642Z,23.77
2022-11-21T03:23:21.958Z,24.05
2022-11-21T03:25:49.239Z,18.33
2022-11-21T03:28:16.531Z,24.05
2022-11-21T03:30:43.890Z,22.77
2022-11-21T03:33:11.314Z,25.02
2022-11-21T03:35:38.577Z,25.02
2022-11-21T03:38:05.979Z,19.98
2022-11-21T03:40:33.576Z,22.77
2022-11-21T03:43:07.894Z,25.25
2022-11-21T03:45:35.280Z,21.85
2022-11-21T03:48:02.539Z,25.20
2022-11-21T03:50:29.840Z,24.13
2022-11-21T03:52:57.153Z,23.42
2022-11-21T03:55:24.463Z,23.25
2022-11-21T03:57:51.824Z,23.25
2022-11-21T04:00:19.380Z,24.58
2022-11-21T04:02:46.662Z,18.77
2022-11-21T04:05:13.947Z,23.27
2022-11-21T04:07:41.334Z,24.85
2022-11-21T04:10:09.073Z,21.63
2022-11-21T04:12:36.395Z,23.98
2022-11-21T04:15:07.054Z,26.02
2022-11-21T04:17:39.186Z,23.70
2022-11-21T04:20:06.893Z,27.35
2022-11-21T04:22:34.229Z,25.50
2022-11-21T04:25:01.557Z,25.15
2022-11-21T04:27:28.970Z,24.42
2022-11-21T04:29:56.295Z,25.30
2022-11-21T04:32:23.640Z,21.70
2022-11-21T04:34:50.968Z,23.80
2022-11-21T04:37:18.423Z,23.63
2022-11-21T04:39:45.810Z,23.77
2022-11-21T04:42:13.148Z,23.48
2022-11-21T04:44:40.457Z,25.02
2022-11-21T04:47:08.060Z,22.75
2022-11-21T04:49:35.367Z,23.60
2022-11-21T04:52:03.875Z,22.88
2022-11-21T04:54:31.316Z,22.17
2022-11-21T04:56:58.793Z,22.52
2022-11-21T04:59:26.121Z,22.73
2022-11-21T05:01:53.413Z,23.95
2022-11-21T05:04:20.750Z,24.50
2022-11-21T05:06:48.081Z,22.13
2022-11-21T05:09:15.351Z,25.05
2022-11-21T05:12:01.377Z,24.48
2022-11-21T05:14:29.011Z,22.08
2022-11-21T05:16:56.535Z,23.30
2022-11-21T05:19:23.815Z,23.33
2022-11-21T05:21:51.087Z,24.27
2022-11-21T05:24:18.359Z,23.38
2022-11-21T05:26:45.674Z,25.92
2022-11-21T05:29:13.031Z,26.02
2022-11-21T05:31:40.389Z,23.88
2022-11-21T05:34:07.670Z,25.23
2022-11-21T05:36:35.022Z,24.40
2022-11-21T05:39:02.340Z,26.73
2022-11-21T05:41:29.766Z,24.33
2022-11-21T05:43:57.398Z,25.00
2022-11-21T05:46:26.224Z,23.85
2022-11-21T05:48:54.756Z,26.50
2022-11-21T05:51:22.856Z,25.80
2022-11-21T05:53:50.169Z,25.40
2022-11-21T05:56:19.592Z,26.02
2022-11-21T05:58:47.061Z,24.20
2022-11-21T06:01:15.439Z,24.80
2022-11-21T06:03:43.294Z,24.38
2022-11-21T06:06:13.004Z,23.98
2022-11-21T06:08:47.049Z,23.25
2022-11-21T06:11:16.247Z,24.23
2022-11-21T06:13:44.203Z,23.20
2022-11-21T06:16:21.647Z,23.42
2022-11-21T06:18:58.366Z,22.63
2022-11-21T06:21:28.533Z,23.50
2022-11-21T06:23:58.059Z,22.85
2022-11-21T06:26:26.828Z,24.70
2022-11-21T06:28:55.017Z,24.35
2022-11-21T06:31:27.175Z,23.40
2022-11-21T06:33:56.195Z,27.20
2022-11-21T06:36:23.913Z,24.02
2022-11-21T06:38:53.783Z,23.15
2022-11-21T06:41:23.270Z,26.38
2022-11-21T06:43:50.799Z,23.23
2022-11-21T06:46:18.834Z,23.42
2022-11-21T06:48:46.163Z,24.73
2022-11-21T06:51:16.435Z,26.27
2022-11-21T06:53:44.049Z,24.92
2022-11-21T06:56:11.463Z,24.50
2022-11-21T06:58:38.819Z,35.50
2022-11-21T07:01:08.354Z,28.35
2022-11-21T07:03:36.559Z,22.38
2022-11-21T07:06:04.250Z,39.88
2022-11-21T07:08:33.502Z,21.33
2022-11-21T07:13:53.221Z,20.38
2022-11-21T07:16:20.706Z,25.77
2022-11-21T07:18:48.204Z,14.07
2022-11-21T07:21:15.528Z,20.90
2022-11-21T07:23:42.912Z,22.95
2022-11-21T07:26:10.782Z,23.67
2022-11-21T07:28:38.073Z,19.88
2022-11-21T07:31:11.735Z,22.55
2022-11-21T07:33:40.992Z,20.52
2022-11-21T07:36:08.464Z,20.95
2022-11-21T07:38:35.736Z,20.92
2022-11-21T07:41:03.232Z,19.13
2022-11-21T07:43:30.660Z,19.33
2022-11-21T07:46:00.126Z,20.25
2022-11-21T07:48:27.491Z,20.08
2022-11-21T07:50:54.823Z,19.75
2022-11-21T07:53:22.179Z,22.45
2022-11-21T07:55:49.528Z,22.23
2022-11-21T07:58:17.456Z,22.45
2022-11-21T08:00:44.939Z,23.17
2022-11-21T08:03:13.461Z,22.30
2022-11-21T08:05:44.623Z,19.88
2022-11-21T08:08:13.154Z,24.48
2022-11-21T08:10:43.221Z,21.38
2022-11-21T08:13:11.657Z,17.70
2022-11-21T08:15:39.571Z,18.85
2022-11-21T08:18:11.727Z,31.42
2022-11-21T08:20:40.596Z,18.02
2022-11-21T08:23:08.257Z,28.05
2022-11-21T08:25:38.858Z,20.80
2022-11-21T08:28:08.277Z,23.10
2022-11-21T08:30:36.884Z,17.73
2022-11-21T08:33:05.024Z,17.15
2022-11-21T08:35:32.539Z,17.30
2022-11-21T08:38:01.434Z,14.88
2022-11-21T08:40:30.862Z,17.27
2022-11-21T08:42:58.773Z,16.35
2022-11-21T08:45:26.513Z,26.52
2022-11-21T08:47:54.759Z,20.20
2022-11-21T08:50:23.339Z,18.95
2022-11-21T08:52:50.675Z,15.48
2022-11-21T08:55:18.214Z,13.68
2022-11-21T08:57:45.532Z,12.98
2022-11-21T09:00:13.765Z,13.48
2022-11-21T09:02:41.170Z,13.68
2022-11-21T09:05:09.396Z,14.10
2022-11-21T09:07:37.154Z,16.35
2022-11-21T09:10:05.152Z,11.80
2022-11-21T09:12:32.557Z,11.23
2022-11-21T09:15:18.444Z,10.88
2022-11-21T09:18:03.878Z,10.63
2022-11-21T09:20:39.646Z,12.00
2022-11-21T09:23:14.985Z,11.23
2022-11-21T09:25:43.009Z,11.77
2022-11-21T09:28:12.595Z,11.65
2022-11-21T09:30:41.229Z,11.25
2022-11-21T09:33:14.368Z,11.65
2022-11-21T09:35:41.726Z,11.55
2022-11-21T09:38:09.481Z,11.30
2022-11-21T09:40:41.967Z,11.73
2022-11-21T09:43:30.282Z,11.45
2022-11-21T09:46:13.238Z,10.32
2022-11-21T09:48:48.576Z,10.38
2022-11-21T09:51:19.264Z,11.02
2022-11-21T09:53:59.426Z,11.05
2022-11-21T09:56:30.382Z,13.65
2022-11-21T09:59:25.721Z,11.40
2022-11-21T10:01:53.122Z,9.80
2022-11-21T10:04:20.598Z,10.77
2022-11-21T10:07:16.104Z,11.30
2022-11-21T10:10:22.151Z,10.10
2022-11-21T10:13:13.908Z,12.05
2022-11-21T10:16:06.402Z,9.60
2022-11-21T10:19:03.790Z,9.68
2022-11-21T10:21:49.443Z,10.35
2022-11-21T10:24:52.612Z,8.35
2022-11-21T10:27:37.851Z,8.80
2022-11-21T10:30:13.819Z,8.02
2022-11-21T10:32:46.234Z,6.60
2022-11-21T10:35:21.962Z,9.07
2022-11-21T10:38:01.679Z,10.82
2022-11-21T10:40:42.101Z,22.02
2022-11-21T10:43:36.977Z,7.57
2022-11-21T10:46:04.320Z,8.02
2022-11-21T10:48:31.640Z,7.07
2022-11-21T10:51:18.705Z,6.13
2022-11-21T10:54:07.753Z,126.72
2022-11-21T10:56:37.100Z,7.45
2022-11-21T10:59:20.246Z,22.97
2022-11-21T11:01:56.510Z,87.68
2022-11-21T11:04:43.995Z,8.50
2022-11-21T11:07:28.153Z,13.52
2022-11-21T11:10:26.889Z,9.32
2022-11-21T11:16:16.199Z,8.65
2022-11-21T11:18:55.766Z,7.32
2022-11-21T11:21:25.629Z,7.13
2022-11-21T11:26:26.513Z,7.65
2022-11-21T11:28:58.704Z,8.13
2022-11-21T11:31:26.063Z,6.97
2022-11-21T11:33:55.850Z,8.55
2022-11-21T11:36:23.117Z,6.70
2022-11-21T11:38:59.262Z,12.95
2022-11-21T11:42:12.433Z,11.73
2022-11-21T11:45:27.811Z,8.02
2022-11-21T11:47:58.163Z,7.15
2022-11-21T11:50:53.534Z,7.80
2022-11-21T11:53:30.500Z,8.02
2022-11-21T11:56:00.274Z,7.55
2022-11-21T11:58:49.588Z,7.78
2022-11-21T12:01:21.968Z,28.33
2022-11-21T12:04:02.473Z,11.77
2022-11-21T12:07:46.680Z,10.82
2022-11-21T12:10:02.542Z,12.23
2022-11-21T12:12:37.674Z,8.35
2022-11-21T12:15:45.419Z,15.77
2022-11-21T12:18:15.811Z,8.05
2022-11-21T12:21:15.328Z,9.18
2022-11-21T12:23:54.234Z,7.05
2022-11-21T12:26:55.380Z,7.55
2022-11-21T12:30:00.733Z,8.98
2022-11-21T12:33:08.796Z,6.88
2022-11-21T12:36:17.869Z,6.05
2022-11-21T12:39:06.882Z,7.43
2022-11-21T12:42:00.284Z,6.97
2022-11-21T12:45:05.559Z,6.47
2022-11-21T12:48:12.541Z,7.90
2022-11-21T12:51:17.186Z,7.43
2022-11-21T12:54:29.001Z,7.18
2022-11-21T12:57:05.434Z,7.57
2022-11-21T12:59:40.569Z,7.95
2022-11-21T13:02:38.532Z,7.60
2022-11-21T13:05:12.107Z,7.70
2022-11-21T13:07:40.973Z,6.60
2022-11-21T13:10:14.847Z,8.10
2022-11-21T13:12:51.400Z,6.72
2022-11-21T13:15:28.166Z,6.30
2022-11-21T13:18:19.385Z,6.15
2022-11-21T13:20:49.149Z,6.80
2022-11-21T13:23:37.055Z,6.65
2022-11-21T13:26:33.762Z,6.78
2022-11-21T13:29:27.426Z,6.75
2022-11-21T13:31:55.170Z,6.75
2022-11-21T13:34:31.730Z,6.45
2022-11-21T13:36:59.318Z,6.85
2022-11-21T13:39:29.885Z,6.20
2022-11-21T13:42:29.259Z,6.40
2022-11-21T13:44:58.664Z,7.18
2022-11-21T13:47:25.934Z,6.88
2022-11-21T13:50:11.565Z,7.95
2022-11-21T13:52:57.330Z,7.57
2022-11-21T13:55:55.686Z,6.93
2022-11-21T13:58:47.726Z,6.72
2022-11-21T14:01:53.163Z,6.90
2022-11-21T14:04:20.496Z,6.65
2022-11-21T14:06:48.447Z,6.88
2022-11-21T14:09:20.284Z,7.32
2022-11-21T14:11:51.086Z,8.45
2022-11-21T14:14:41.489Z,6.53
2022-11-21T14:17:26.947Z,7.43
2022-11-21T14:19:59.885Z,6.72
2022-11-21T14:22:45.991Z,7.32
2022-11-21T14:25:20.166Z,9.15
2022-11-21T14:27:51.216Z,8.57
2022-11-21T14:30:35.381Z,7.60
2022-11-21T14:33:22.813Z,6.55
2022-11-21T14:35:54.214Z,7.38
2022-11-21T14:38:24.912Z,8.27
2022-11-21T14:41:27.545Z,8.35
2022-11-21T14:44:04.173Z,7.63
2022-11-21T14:46:37.613Z,7.35
2022-11-21T14:49:17.166Z,8.95
2022-11-21T14:52:11.342Z,9.52
2022-11-21T14:55:22.800Z,8.93
2022-11-21T14:57:43.312Z,7.50
2022-11-21T15:00:36.308Z,6.50
2022-11-21T15:03:03.333Z,6.53
2022-11-21T15:06:00.901Z,6.43
2022-11-21T15:08:48.003Z,6.25
2022-11-21T15:11:12.731Z,6.45
2022-11-21T15:16:28.887Z,6.20
2022-11-21T15:18:56.671Z,6.45
2022-11-21T15:21:26.438Z,6.10
2022-11-21T15:23:55.536Z,6.25
2022-11-21T15:26:35.519Z,7.35
2022-11-21T15:31:31.237Z,13.18
2022-11-21T15:37:08.201Z,10.75
2022-11-21T15:39:36.147Z,14.35
2022-11-21T15:42:31.283Z,14.70
2022-11-21T15:45:20.438Z,18.52
2022-11-21T15:47:49.000Z,19.38
2022-11-21T15:50:17.418Z,21.80
2022-11-21T15:52:46.046Z,22.55
2022-11-21T15:55:19.717Z,23.92
2022-11-21T15:57:14.859Z,6.43
2022-11-21T15:57:49.446Z,24.83
2022-11-21T16:00:17.539Z,24.88
2022-11-21T16:02:44.801Z,25.25
2022-11-21T16:05:14.012Z,25.42
2022-11-21T16:07:42.148Z,35.25
2022-11-21T16:10:18.319Z,41.45
2022-11-21T16:12:47.211Z,40.13
2022-11-21T16:15:14.611Z,41.33
2022-11-21T16:17:41.983Z,41.45
2022-11-21T16:20:09.670Z,39.40
2022-11-21T16:22:36.959Z,37.83
2022-11-21T16:25:04.658Z,35.88
2022-11-21T16:27:32.738Z,36.58
2022-11-21T16:30:00.064Z,34.63
2022-11-21T16:32:27.976Z,36.40
2022-11-21T16:34:55.223Z,32.17
2022-11-21T16:37:22.547Z,37.55
2022-11-21T16:39:52.247Z,35.22
2022-11-21T16:42:20.248Z,37.90
2022-11-21T16:44:48.140Z,36.35
2022-11-21T16:47:15.628Z,33.03
2022-11-21T16:49:48.441Z,31.35
2022-11-21T16:52:18.211Z,31.02
2022-11-21T16:54:48.645Z,30.27
2022-11-21T16:57:15.899Z,30.50
2022-11-21T16:59:43.234Z,30.33
2022-11-21T17:02:11.343Z,35.03
2022-11-21T17:04:38.647Z,36.47
2022-11-21T17:07:06.031Z,42.15
2022-11-21T17:09:33.477Z,42.53
2022-11-21T17:12:00.772Z,40.03
2022-11-21T17:14:28.345Z,34.35
2022-11-21T17:16:56.017Z,32.35
2022-11-21T17:19:23.524Z,32.40
2022-11-21T17:21:50.849Z,26.92
2022-11-21T17:24:18.493Z,23.38
2022-11-21T17:26:45.836Z,23.63
2022-11-21T17:29:13.215Z,24.15
2022-11-21T17:31:41.911Z,25.25
2022-11-21T17:34:09.308Z,27.02
2022-11-21T17:36:36.611Z,27.33
2022-11-21T17:39:04.170Z,25.67
2022-11-21T17:41:31.488Z,28.17
2022-11-21T17:44:02.148Z,27.42
2022-11-21T17:46:29.766Z,25.73
2022-11-21T17:48:58.816Z,26.08
2022-11-21T17:51:33.497Z,25.55
2022-11-21T17:54:02.029Z,24.55
2022-11-21T17:56:31.907Z,22.85
2022-11-21T17:58:59.351Z,23.13
2022-11-21T18:01:27.052Z,21.85
2022-11-21T18:03:59.512Z,22.27
2022-11-21T18:06:29.284Z,20.58
2022-11-21T18:08:59.885Z,21.15
2022-11-21T18:11:38.987Z,22.40
2022-11-21T18:14:08.046Z,24.02
2022-11-21T18:16:35.892Z,25.20
2022-11-21T18:19:03.504Z,25.40
2022-11-21T18:21:33.452Z,26.48
2022-11-21T18:26:39.113Z,25.60
2022-11-21T18:31:58.932Z,30.65
2022-11-21T18:34:26.284Z,31.58
2022-11-21T18:36:54.324Z,33.78
2022-11-21T18:39:24.945Z,33.53
2022-11-21T18:41:52.416Z,34.90
2022-11-21T18:44:22.331Z,35.03
2022-11-21T18:46:50.480Z,35.33
2022-11-21T18:49:18.259Z,32.47
2022-11-21T18:51:48.980Z,35.70
2022-11-21T18:54:16.378Z,35.92
2022-11-21T18:56:43.995Z,36.95
2022-11-21T18:59:11.439Z,36.03
2022-11-21T19:01:42.080Z,38.70
2022-11-21T19:04:09.811Z,36.03
2022-11-21T19:06:37.211Z,37.83
2022-11-21T19:09:04.611Z,41.15
2022-11-21T19:11:32.052Z,38.63
2022-11-21T19:14:00.813Z,36.60
2022-11-21T19:16:31.454Z,38.03
2022-11-21T19:19:32.981Z,35.47
2022-11-21T19:21:47.179Z,35.30
2022-11-21T19:24:15.476Z,38.38
2022-11-21T19:26:45.915Z,37.92
2022-11-21T19:29:13.313Z,39.97
2022-11-21T19:31:45.317Z,37.05
2022-11-21T19:34:15.045Z,38.70
2022-11-21T19:36:42.780Z,40.60
2022-11-21T19:39:10.547Z,38.45
2022-11-21T19:41:38.300Z,38.10
2022-11-21T19:44:05.749Z,39.08
2022-11-21T19:46:35.357Z,37.15
2022-11-21T19:49:06.380Z,37.53
2022-11-21T19:51:39.852Z,36.60
2022-11-21T19:54:09.238Z,33.90
2022-11-21T19:56:36.587Z,37.05
2022-11-21T19:59:04.365Z,40.25
2022-11-21T20:01:33.670Z,40.10
2022-11-21T20:04:03.472Z,46.63
2022-11-21T20:06:33.582Z,43.17
2022-11-21T20:09:05.378Z,41.83
2022-11-21T20:11:33.559Z,40.25
2022-11-21T20:14:01.180Z,38.17
2022-11-21T20:16:31.065Z,36.65
2022-11-21T20:21:27.857Z,34.08
2022-11-21T20:23:57.331Z,33.38
2022-11-21T20:26:25.796Z,36.17
2022-11-21T20:28:53.528Z,36.28
2022-11-21T20:31:23.460Z,34.60
2022-11-21T20:36:21.275Z,34.53
2022-11-21T20:39:00.255Z,33.50
2022-11-21T20:41:30.041Z,32.83
2022-11-21T20:46:47.057Z,39.90
2022-11-21T20:49:14.596Z,34.83
2022-11-21T20:54:31.168Z,40.88
2022-11-21T20:56:58.658Z,42.80
2022-11-21T20:59:26.543Z,42.75
2022-11-21T21:01:54.065Z,43.10
2022-11-21T21:04:21.406Z,43.58
2022-11-21T21:06:48.691Z,45.08
2022-11-21T21:09:16.070Z,44.95
2022-11-21T21:11:52.691Z,37.30
2022-11-21T21:14:22.074Z,34.28
2022-11-21T21:16:50.013Z,35.20
2022-11-21T21:19:17.913Z,37.42
2022-11-21T21:21:45.350Z,35.10
2022-11-21T21:24:13.448Z,34.85
2022-11-21T21:26:46.565Z,37.97
2022-11-21T21:29:17.814Z,41.20
2022-11-21T21:31:51.055Z,39.85
2022-11-21T21:34:21.165Z,46.30
2022-11-21T21:36:49.402Z,48.20
2022-11-21T21:39:16.977Z,44.97
2022-11-21T21:41:46.184Z,48.40
2022-11-21T21:46:41.785Z,43.13
2022-11-21T21:49:09.080Z,42.88
2022-11-21T21:51:37.573Z,44.38
2022-11-21T21:54:06.522Z,43.00
2022-11-21T21:56:34.326Z,43.65
2022-11-21T21:59:01.663Z,46.45
2022-11-21T22:01:31.642Z,49.85
2022-11-21T22:04:01.197Z,44.17
2022-11-21T22:06:29.680Z,42.80
2022-11-21T22:08:57.029Z,50.28
2022-11-21T22:11:26.616Z,52.53
2022-11-21T22:13:59.424Z,55.72
2022-11-21T22:16:27.296Z,53.65
2022-11-21T22:18:54.678Z,59.67
2022-11-21T22:21:32.971Z,59.95
2022-11-21T22:24:26.061Z,86.32
2022-11-21T22:26:53.894Z,79.50
2022-11-21T22:29:21.186Z,80.07
2022-11-21T22:31:48.475Z,71.63
2022-11-21T22:34:15.851Z,69.10
2022-11-21T22:36:43.452Z,73.13
2022-11-21T22:39:10.726Z,66.05
2022-11-21T22:41:38.087Z,65.78
2022-11-21T22:44:05.586Z,56.35
2022-11-21T22:46:32.964Z,54.88
2022-11-21T22:49:00.298Z,63.10
2022-11-21T22:51:29.789Z,57.75
2022-11-21T22:53:57.625Z,57.65
2022-11-21T22:56:25.775Z,58.38
2022-11-21T22:58:53.891Z,52.97
2022-11-21T23:01:23.552Z,61.63
2022-11-21T23:03:51.710Z,49.08
2022-11-21T23:06:21.477Z,47.50
2022-11-21T23:08:49.557Z,46.35
2022-11-21T23:11:21.612Z,55.63
2022-11-21T23:13:49.420Z,47.92
2022-11-21T23:16:17.341Z,47.50
2022-11-21T23:18:44.781Z,48.00
2022-11-21T23:21:13.098Z,44.67
2022-11-21T23:23:41.177Z,47.75
2022-11-21T23:26:08.652Z,41.15
2022-11-21T23:28:36.441Z,46.10
2022-11-21T23:31:03.852Z,67.65
2022-11-21T23:33:31.164Z,67.20
2022-11-21T23:35:58.531Z,68.25
2022-11-21T23:38:25.840Z,70.85
2022-11-21T23:40:53.216Z,65.32
2022-11-21T23:43:20.562Z,61.65
2022-11-21T23:45:52.315Z,56.92
2022-11-21T23:48:20.667Z,56.35
2022-11-21T23:50:50.420Z,48.72
2022-11-21T23:53:18.844Z,42.72
2022-11-21T23:55:46.537Z,45.15
2022-11-21T23:58:14.224Z,42.20
